Time;durP1;ratioP1;P1;durP2;ratioP2;P2;SDS_P1;SDS_P2;PMS_P1;PMS_P2;Temp;Humidity;BMP_temperature;BMP_pressure;BME280_temperature;BME280_humidity;BME280_pressure;Samples;Min_cycle;Max_cycle;Signal;HPM_P1;HPM_P2
2021/11/16 00:00:39;;;;;;;70.85;44.92;;;6.10;99.90;;;6.10;74.23;102192.25;4954430;29;20212;-82
2021/11/16 00:03:09;;;;;;;62.20;42.95;;;6.10;99.90;;;6.03;74.52;102193.84;4956824;28;20201;-82
2021/11/16 00:05:39;;;;;;;75.70;44.67;;;6.10;99.90;;;6.02;74.72;102195.66;4975987;28;20207;-82
2021/11/16 00:08:09;;;;;;;72.82;42.75;;;6.10;99.90;;;6.00;74.85;102191.44;4975150;28;20169;-81
2021/11/16 00:10:39;;;;;;;74.18;45.15;;;6.10;99.90;;;6.03;74.44;102189.31;4975859;29;20193;-82
2021/11/16 00:13:11;;;;;;;68.78;45.17;;;6.10;99.90;;;6.06;74.62;102190.84;4975046;28;20714;-81
2021/11/16 00:15:42;;;;;;;67.32;42.97;;;6.10;99.90;;;6.08;74.36;102188.88;4973168;29;20181;-81
2021/11/16 00:18:11;;;;;;;70.20;46.83;;;6.10;99.90;;;6.02;74.40;102179.53;4971162;29;20217;-82
2021/11/16 00:20:43;;;;;;;84.38;46.63;;;6.10;99.90;;;6.01;74.53;102187.72;4972122;29;20189;-82
2021/11/16 00:23:17;;;;;;;74.30;45.03;;;6.10;99.90;;;5.97;74.82;102191.69;4956830;29;20203;-82
2021/11/16 00:25:50;;;;;;;71.05;45.10;;;6.00;99.90;;;6.03;74.84;102199.22;4955777;29;20204;-80
2021/11/16 00:28:19;;;;;;;66.13;43.85;;;6.10;99.90;;;6.03;74.85;102196.53;4954076;29;20239;-82
2021/11/16 00:30:49;;;;;;;74.85;47.65;;;6.10;99.90;;;6.02;74.74;102205.56;4955075;29;20178;-82
2021/11/16 00:33:20;;;;;;;78.15;44.88;;;6.10;99.90;;;5.94;75.22;102195.53;4969429;29;20189;-81
2021/11/16 00:35:51;;;;;;;73.57;46.72;;;6.00;99.90;;;6.08;74.33;102205.00;4969968;29;20217;-81
2021/11/16 00:38:25;;;;;;;69.60;43.72;;;6.10;99.90;;;6.03;74.67;102202.75;4968654;29;20193;-80
2021/11/16 00:40:55;;;;;;;71.20;45.22;;;6.10;99.90;;;5.98;74.93;102202.31;4952331;29;20293;-80
2021/11/16 00:43:24;;;;;;;72.18;46.70;;;6.10;99.90;;;6.03;74.65;102204.59;4968156;29;20232;-80
2021/11/16 00:45:53;;;;;;;67.85;45.30;;;6.10;99.90;;;6.00;74.62;102194.13;4970102;29;20260;-81
2021/11/16 00:48:23;;;;;;;66.68;44.35;;;6.10;99.90;;;5.94;75.29;102197.38;4957555;29;20204;-82
2021/11/16 00:50:58;;;;;;;77.13;46.03;;;6.10;99.90;;;5.98;75.46;102201.47;4974863;29;20185;-80
2021/11/16 00:53:33;;;;;;;71.95;44.50;;;6.00;99.90;;;6.02;74.79;102192.97;4974275;29;20212;-81
2021/11/16 00:56:04;;;;;;;81.38;47.28;;;6.10;99.90;;;6.10;74.70;102184.19;4955979;29;20173;-81
2021/11/16 00:58:33;;;;;;;79.15;45.15;;;6.10;99.90;;;6.02;75.30;102189.44;4952677;29;20251;-81
2021/11/16 01:01:03;;;;;;;75.30;46.67;;;6.00;99.90;;;6.03;74.67;102178.56;4967843;29;20232;-82
2021/11/16 01:03:33;;;;;;;86.47;48.30;;;6.10;99.90;;;5.95;75.15;102177.56;4969985;29;20236;-80
2021/11/16 01:06:03;;;;;;;84.15;50.38;;;6.00;99.90;;;5.89;75.61;102178.13;4973674;29;20257;-82
2021/11/16 01:08:33;;;;;;;75.10;44.33;;;5.90;99.90;;;5.87;75.38;102174.72;4969272;29;20200;-81
2021/11/16 01:11:02;;;;;;;83.97;46.88;;;5.90;99.90;;;5.95;75.19;102170.38;4951789;29;20235;-81
2021/11/16 01:13:31;;;;;;;80.75;47.97;;;6.00;99.90;;;5.89;75.74;102162.00;4968245;29;20220;-81
2021/11/16 01:16:00;;;;;;;81.63;48.67;;;5.90;99.90;;;6.03;75.32;102166.97;4967621;29;20224;-82
2021/11/16 01:18:29;;;;;;;76.60;48.90;;;6.00;99.90;;;6.05;75.09;102167.69;4967536;28;20644;-80
2021/11/16 01:20:59;;;;;;;73.90;45.25;;;6.00;99.90;;;6.07;74.72;102160.31;4967511;29;20189;-81
2021/11/16 01:23:29;;;;;;;81.95;48.85;;;6.10;99.90;;;5.96;74.86;102153.22;4951809;29;20252;-81
2021/11/16 01:26:01;;;;;;;76.35;48.58;;;6.00;99.90;;;6.02;75.29;102151.81;4967571;29;20189;-82
2021/11/16 01:28:31;;;;;;;80.85;51.63;;;6.10;99.90;;;6.08;74.96;102148.56;4967434;29;20197;-82
2021/11/16 01:31:03;;;;;;;80.65;47.78;;;6.10;99.90;;;6.04;74.83;102145.31;4951134;29;20196;-80
2021/11/16 01:33:41;;;;;;;85.85;49.20;;;6.00;99.90;;;5.97;75.04;102148.72;4966400;29;20216;-82
2021/11/16 01:36:13;;;;;;;76.70;46.63;;;6.00;99.90;;;5.96;75.09;102149.69;4952607;29;20173;-81
2021/11/16 01:38:44;;;;;;;86.60;52.45;;;6.00;99.90;;;5.96;74.91;102149.69;4968456;29;20252;-81
2021/11/16 01:41:14;;;;;;;81.78;48.70;;;6.00;99.90;;;5.95;75.27;102150.72;4953488;29;20204;-81
2021/11/16 01:43:43;;;;;;;73.78;45.92;;;6.00;99.90;;;5.89;75.11;102145.88;4968630;29;20285;-81
2021/11/16 01:46:15;;;;;;;74.70;48.72;;;5.90;99.90;;;5.93;74.95;102152.66;4971072;29;20227;-80
2021/11/16 01:48:49;;;;;;;86.43;50.03;;;6.00;99.90;;;5.93;75.29;102144.63;4959162;28;20204;-79
2021/11/16 01:51:22;;;;;;;79.50;47.20;;;5.90;99.90;;;5.99;75.29;102144.06;4955580;29;20197;-81
2021/11/16 01:53:56;;;;;;;78.50;47.22;;;6.00;99.90;;;5.93;75.50;102144.63;4956034;29;20213;-80
2021/11/16 01:56:26;;;;;;;79.78;48.45;;;5.90;99.90;;;5.97;74.92;102144.19;4968144;29;20208;-80
2021/11/16 01:58:58;;;;;;;79.72;48.83;;;6.00;99.90;;;5.95;75.05;102142.66;4951704;29;20177;-81
2021/11/16 02:01:28;;;;;;;86.82;52.30;;;6.00;99.90;;;5.86;75.16;102136.22;4952770;29;20189;-82
2021/11/16 02:03:57;;;;;;;86.88;50.80;;;5.90;99.90;;;6.07;75.17;102139.66;4967636;29;20260;-81
2021/11/16 02:06:33;;;;;;;86.47;49.95;;;5.90;99.90;;;5.96;75.00;102136.25;4951344;29;20192;-81
2021/11/16 02:09:04;;;;;;;80.03;52.17;;;5.90;99.90;;;5.92;75.33;102127.63;4967099;29;20216;-80
2021/11/16 02:11:34;;;;;;;87.85;50.83;;;5.90;99.90;;;5.99;74.93;102126.09;4967286;29;20217;-81
2021/11/16 02:14:06;;;;;;;87.07;52.15;;;6.00;99.90;;;5.89;75.15;102119.88;4966891;29;20228;-80
2021/11/16 02:16:37;;;;;;;79.68;46.72;;;5.90;99.90;;;5.91;74.90;102125.94;4951434;29;20201;-81
2021/11/16 02:19:08;;;;;;;85.68;48.33;;;6.00;99.90;;;5.89;75.16;102124.41;4967450;29;20204;-81
2021/11/16 02:21:40;;;;;;;86.15;49.67;;;5.90;99.90;;;5.79;75.55;102120.81;4967839;29;20224;-81
2021/11/16 02:24:10;;;;;;;94.85;51.42;;;5.80;99.90;;;5.86;75.55;102117.41;4951441;29;20228;-79
2021/11/16 02:26:38;;;;;;;94.05;53.53;;;5.80;99.90;;;5.78;76.03;102113.75;4951560;29;20200;-81
2021/11/16 02:29:08;;;;;;;79.80;47.20;;;5.80;99.90;;;5.86;75.12;102108.50;4967499;28;20204;-81
2021/11/16 02:31:38;;;;;;;77.50;46.78;;;5.80;99.90;;;5.78;75.58;102111.06;4954536;29;20220;-80
2021/11/16 02:34:08;;;;;;;81.50;48.45;;;5.80;99.90;;;5.77;75.68;102115.59;4955170;29;20244;-80
2021/11/16 02:36:41;;;;;;;101.22;52.97;;;5.80;99.90;;;5.73;75.75;102107.94;4970914;29;20231;-81
2021/11/16 02:39:12;;;;;;;85.85;51.90;;;5.70;99.90;;;5.74;75.65;102099.75;4971279;29;20252;-81
2021/11/16 02:41:46;;;;;;;89.13;47.30;;;5.70;99.90;;;5.74;75.73;102097.06;4972111;29;20204;-81
2021/11/16 02:44:18;;;;;;;90.72;53.63;;;5.70;99.90;;;5.76;76.15;102102.31;4955887;29;20248;-81
2021/11/16 02:46:49;;;;;;;95.05;51.15;;;5.70;99.90;;;5.79;75.96;102091.28;4955522;29;20203;-80
2021/11/16 02:49:18;;;;;;;81.22;50.42;;;5.80;99.90;;;5.79;75.67;102075.16;4971281;29;20290;-80
2021/11/16 02:51:48;;;;;;;85.07;49.25;;;5.80;99.90;;;5.73;75.72;102083.78;4958373;29;20195;-81
2021/11/16 02:54:21;;;;;;;81.20;49.35;;;5.80;99.90;;;5.78;75.79;102084.19;4975007;29;20249;-81
2021/11/16 02:56:51;;;;;;;83.35;50.50;;;5.70;99.90;;;5.71;76.01;102083.09;4976555;29;20220;-81
2021/11/16 02:59:20;;;;;;;81.93;47.38;;;5.70;99.90;;;5.77;76.00;102079.81;4954837;29;20667;-80
2021/11/16 03:01:49;;;;;;;77.95;50.40;;;5.70;99.90;;;5.82;76.22;102080.22;4957718;29;20181;-80
2021/11/16 03:04:23;;;;;;;84.90;49.88;;;5.80;99.90;;;5.75;75.72;102079.97;4970163;29;20225;-81
2021/11/16 03:06:54;;;;;;;81.47;50.60;;;5.80;99.90;;;5.69;76.00;102076.03;4969459;29;20220;-81
2021/11/16 03:09:23;;;;;;;82.57;47.67;;;5.70;99.90;;;5.74;75.83;102078.28;4971936;29;20193;-82
2021/11/16 03:11:52;;;;;;;80.28;47.95;;;5.70;99.90;;;5.68;76.22;102079.69;4959286;29;20178;-81
2021/11/16 03:14:21;;;;;;;93.93;49.10;;;5.70;99.90;;;5.71;76.21;102083.94;4960064;28;20241;-81
2021/11/16 03:16:50;;;;;;;79.97;45.80;;;5.70;99.90;;;5.80;75.96;102087.59;4976846;28;20362;-81
2021/11/16 03:19:19;;;;;;;80.50;47.78;;;5.70;99.90;;;5.74;75.84;102085.47;4968345;29;20201;-80
2021/11/16 03:21:55;;;;;;;84.47;49.85;;;5.70;99.90;;;5.88;75.95;102085.09;4949157;29;20203;-80
2021/11/16 03:24:31;;;;;;;78.75;50.17;;;5.80;99.90;;;5.84;75.67;102080.97;4958495;28;20219;-82
2021/11/16 03:27:07;;;;;;;80.20;48.80;;;5.80;99.90;;;5.85;75.81;102070.06;4961748;28;20168;-81
2021/11/16 03:29:43;;;;;;;79.03;50.08;;;5.80;99.90;;;5.78;76.20;102068.09;4977010;28;20224;-81
2021/11/16 03:32:16;;;;;;;87.63;48.33;;;5.80;99.90;;;5.69;75.75;102067.97;4976734;28;20192;-82
2021/11/16 03:34:48;;;;;;;79.93;44.28;;;5.70;99.90;;;5.62;76.40;102064.13;5044323;23;20229;-74
2021/11/16 03:37:19;;;;;;;86.75;49.35;;;5.70;99.90;;;5.63;76.43;102068.53;4917973;29;20194;-73
2021/11/16 03:39:54;;;;;;;75.85;42.30;;;5.60;99.90;;;5.69;76.32;102062.59;4919443;29;20502;-74
2021/11/16 03:42:22;;;;;;;90.05;51.05;;;5.70;99.90;;;5.65;76.13;102061.19;4918536;29;20209;-74
2021/11/16 03:44:50;;;;;;;81.32;48.17;;;5.60;99.90;;;5.67;76.24;102069.94;4917601;29;20213;-75
2021/11/16 03:47:19;;;;;;;84.57;52.00;;;5.70;99.90;;;5.65;76.20;102061.19;4919008;29;20643;-74
2021/11/16 03:49:49;;;;;;;82.72;49.85;;;5.60;99.90;;;5.66;76.03;102062.03;4917529;29;20564;-74
2021/11/16 03:52:22;;;;;;;86.20;51.13;;;5.70;99.90;;;5.60;76.67;102058.06;4917394;29;20201;-74
2021/11/16 03:54:55;;;;;;;86.30;50.83;;;5.60;99.90;;;5.80;76.67;102055.38;4917534;29;20197;-75
2021/11/16 03:57:28;;;;;;;94.03;49.28;;;5.70;99.90;;;5.90;75.70;102056.25;4917265;29;20285;-75
2021/11/16 04:00:04;;;;;;;84.00;47.63;;;5.80;99.90;;;5.81;75.89;102036.41;4901568;29;20208;-75
2021/11/16 04:02:41;;;;;;;80.55;47.25;;;5.70;99.90;;;5.78;75.97;102041.22;4917403;29;20213;-75
2021/11/16 04:05:15;;;;;;;80.28;46.72;;;5.70;99.90;;;5.72;75.96;102036.41;4932802;29;20613;-75
2021/11/16 04:07:48;;;;;;;79.43;48.33;;;5.70;99.90;;;5.74;75.75;102040.66;4932761;29;20617;-75
2021/11/16 04:10:25;;;;;;;75.60;47.80;;;5.70;99.90;;;5.77;76.15;102044.91;4916903;29;20207;-74
2021/11/16 04:13:02;;;;;;;80.50;47.67;;;5.70;99.90;;;5.71;75.97;102040.97;4917244;29;20563;-74
2021/11/16 04:15:35;;;;;;;75.82;47.10;;;5.70;99.90;;;5.71;76.06;102032.91;4933096;29;20524;-73
2021/11/16 04:18:09;;;;;;;85.18;49.63;;;5.70;99.90;;;5.73;75.83;102038.97;4918981;29;20269;-75
2021/11/16 04:20:46;;;;;;;86.43;51.58;;;5.70;99.90;;;5.79;76.21;102041.09;4933089;29;20201;-74
2021/11/16 04:23:18;;;;;;;79.45;48.63;;;5.70;99.90;;;5.71;76.44;102040.13;4918703;29;20561;-74
2021/11/16 04:25:49;;;;;;;87.38;49.15;;;5.70;99.90;;;5.77;76.19;102028.78;4932892;29;20209;-74
2021/11/16 04:28:21;;;;;;;89.63;47.33;;;5.70;99.90;;;5.65;76.18;102030.78;4917129;29;20197;-74
2021/11/16 04:30:54;;;;;;;85.38;48.78;;;5.70;99.90;;;5.72;76.30;102018.47;4916858;29;20194;-74
2021/11/16 04:33:24;;;;;;;86.35;46.67;;;5.70;99.90;;;5.69;76.28;102019.63;4932471;29;20221;-74
2021/11/16 04:35:57;;;;;;;83.75;44.45;;;5.60;99.90;;;5.67;76.43;102012.66;4917497;29;20198;-75
2021/11/16 04:38:28;;;;;;;82.82;48.28;;;5.60;99.90;;;5.69;76.32;102013.38;4917461;29;20264;-75
2021/11/16 04:41:01;;;;;;;86.32;46.97;;;5.60;99.90;;;5.60;76.46;102017.78;4918521;29;20308;-74
2021/11/16 04:43:32;;;;;;;77.03;45.03;;;5.60;99.90;;;5.64;76.72;102019.19;4916789;29;20214;-74
2021/11/16 04:46:05;;;;;;;82.88;46.78;;;5.60;99.90;;;5.59;77.32;102016.09;4918389;29;20198;-74
2021/11/16 04:54:28;;;;;;;81.68;46.95;;;5.50;99.90;;;5.64;76.93;102003.09;4914500;29;20212;-75
2021/11/16 04:59:49;;;;;;;78.40;45.95;;;5.60;99.90;;;5.73;76.86;101998.69;4917347;29;20222;-73
2021/11/16 05:02:36;;;;;;;89.65;51.97;;;5.70;99.90;;;5.76;76.86;101997.56;4918051;29;20707;-74
2021/11/16 05:05:11;;;;;;;75.63;47.47;;;5.70;99.90;;;5.85;76.80;102004.75;4916761;29;20205;-74
2021/11/16 05:07:47;;;;;;;83.38;46.40;;;5.80;99.90;;;5.79;76.34;102005.31;4917118;29;20624;-74
2021/11/16 05:10:16;;;;;;;85.07;50.55;;;5.70;99.90;;;5.72;76.94;102009.56;4916545;29;20205;-74
2021/11/16 05:12:46;;;;;;;77.45;48.17;;;5.70;99.90;;;5.74;76.98;102012.97;4917898;29;20268;-73
2021/11/16 05:15:19;;;;;;;86.78;50.72;;;5.70;99.90;;;5.82;76.98;102016.63;4916522;29;20240;-74
2021/11/16 05:17:49;;;;;;;83.95;48.55;;;5.80;99.90;;;5.84;76.10;102016.47;4917413;29;20197;-74
2021/11/16 05:20:19;;;;;;;84.25;50.70;;;5.80;99.90;;;5.90;76.38;102010.56;4919619;29;20189;-74
2021/11/16 05:22:54;;;;;;;86.40;51.38;;;5.80;99.90;;;5.92;76.30;102008.56;4918140;29;20593;-74
2021/11/16 05:25:24;;;;;;;87.97;47.38;;;5.80;99.90;;;5.90;76.45;102002.50;4923453;29;20197;-74
2021/11/16 05:27:54;;;;;;;85.95;49.88;;;5.80;99.90;;;5.90;76.75;102019.47;4938207;29;20540;-74
2021/11/16 05:30:27;;;;;;;88.32;47.38;;;5.80;99.90;;;5.83;76.94;102018.31;4922245;29;20421;-74
2021/11/16 05:32:56;;;;;;;84.13;50.10;;;5.80;99.90;;;5.93;76.42;102018.31;4917951;29;20221;-73
2021/11/16 05:35:25;;;;;;;93.90;50.35;;;5.80;99.90;;;5.84;76.67;102025.38;4918486;29;20280;-74
2021/11/16 05:37:54;;;;;;;83.78;49.15;;;5.80;99.90;;;5.83;76.96;102022.84;4932743;29;20193;-75
2021/11/16 05:40:23;;;;;;;87.60;50.80;;;5.80;99.90;;;5.72;77.18;102022.97;4916896;29;20190;-73
2021/11/16 05:42:51;;;;;;;97.28;55.30;;;5.80;99.90;;;5.96;76.81;102018.03;4932451;29;20660;-74
2021/11/16 05:45:21;;;;;;;85.35;51.13;;;5.80;99.90;;;5.86;76.89;102022.53;4916917;29;20218;-73
2021/11/16 05:47:56;;;;;;;89.10;48.95;;;5.80;99.90;;;5.86;76.69;102017.16;4916659;29;20680;-74
2021/11/16 05:50:27;;;;;;;86.75;46.95;;;5.80;99.90;;;5.88;76.67;102020.59;4918908;29;20201;-74
2021/11/16 05:52:56;;;;;;;87.88;52.63;;;5.80;99.90;;;5.92;76.57;102016.63;4917289;29;20706;-74
2021/11/16 05:55:28;;;;;;;81.20;48.70;;;5.90;99.90;;;5.97;76.32;102020.56;4933856;29;20204;-73
2021/11/16 05:57:59;;;;;;;86.95;49.78;;;5.90;99.90;;;5.89;76.42;102017.78;4916998;29;20204;-74
2021/11/16 06:00:30;;;;;;;91.38;50.03;;;5.80;99.90;;;5.77;76.74;102018.03;4917855;29;20200;-75
2021/11/16 06:02:58;;;;;;;94.78;49.15;;;5.80;99.90;;;5.91;76.56;102015.78;4917830;29;20217;-74
2021/11/16 06:05:27;;;;;;;80.38;48.08;;;5.80;99.90;;;5.88;76.73;102016.06;4916336;29;20217;-76
2021/11/16 06:07:56;;;;;;;86.22;49.70;;;5.80;99.90;;;6.05;76.19;102025.25;4918909;29;20632;-74
2021/11/16 06:10:24;;;;;;;86.93;49.63;;;5.90;99.90;;;6.03;76.48;102019.16;4919839;29;20200;-74
2021/11/16 06:12:54;;;;;;;89.70;51.30;;;6.00;99.90;;;5.97;76.32;102019.72;4918755;29;20209;-74
2021/11/16 06:15:24;;;;;;;85.03;48.53;;;5.90;99.90;;;6.08;76.65;102025.78;4917827;29;20193;-75
2021/11/16 06:17:55;;;;;;;87.63;50.53;;;6.00;99.90;;;6.12;76.16;102029.03;4919616;29;20241;-74
2021/11/16 06:20:31;;;;;;;83.00;48.63;;;6.00;99.90;;;6.00;76.19;102027.53;4920484;29;20288;-74
2021/11/16 06:23:00;;;;;;;87.20;50.53;;;6.00;99.90;;;6.05;76.43;102030.63;4939023;29;20221;-74
2021/11/16 06:25:28;;;;;;;92.80;53.10;;;6.00;99.90;;;6.04;76.66;102029.78;4929864;29;20177;-73
2021/11/16 06:27:57;;;;;;;93.30;52.88;;;6.00;99.90;;;5.96;76.67;102024.25;4931339;29;20221;-74
2021/11/16 06:30:26;;;;;;;88.32;48.08;;;6.00;99.90;;;5.91;76.85;102025.69;4934923;29;20189;-74
2021/11/16 06:32:56;;;;;;;85.25;50.83;;;5.90;99.90;;;6.11;76.16;102040.78;4949668;29;20229;-75
2021/11/16 06:35:24;;;;;;;79.10;45.95;;;6.00;99.90;;;6.17;75.43;102042.03;4933937;29;20217;-74
2021/11/16 06:37:53;;;;;;;85.47;52.95;;;6.10;99.90;;;6.10;75.98;102042.59;4935276;29;20259;-73
2021/11/16 06:40:22;;;;;;;89.10;49.75;;;6.10;99.90;;;6.06;75.84;102043.03;4934897;29;20205;-73
2021/11/16 06:42:51;;;;;;;92.90;51.75;;;6.00;99.90;;;5.97;76.80;102054.66;4934723;29;20213;-74
2021/11/16 06:45:20;;;;;;;90.63;48.80;;;6.00;99.90;;;5.94;76.54;102052.28;4931305;29;20173;-75
2021/11/16 06:47:48;;;;;;;92.10;51.47;;;5.90;99.90;;;6.00;76.86;102057.06;4931682;29;20224;-74
2021/11/16 06:50:18;;;;;;;90.80;54.60;;;5.90;99.90;;;6.15;76.27;102054.78;4931918;29;20242;-74
2021/11/16 06:52:48;;;;;;;84.25;48.10;;;6.00;99.90;;;6.11;76.78;102062.25;4932184;29;20210;-74
2021/11/16 06:55:17;;;;;;;80.90;45.67;;;6.10;99.90;;;6.05;76.17;102065.56;4947655;29;20194;-75
2021/11/16 06:57:47;;;;;;;73.22;43.38;;;6.00;99.90;;;6.03;75.48;102056.78;4932003;29;20189;-74
2021/11/16 07:00:16;;;;;;;72.82;44.17;;;6.00;99.90;;;6.15;75.67;102071.72;4928707;29;20287;-74
2021/11/16 07:02:57;;;;;;;60.10;40.17;;;6.10;99.90;;;6.19;75.16;102057.03;4946934;29;20221;-74
2021/11/16 07:05:29;;;;;;;61.10;39.47;;;6.10;99.90;;;6.13;75.07;102057.59;4932151;29;20182;-73
2021/11/16 07:07:59;;;;;;;72.65;43.05;;;6.10;99.90;;;5.99;76.15;102061.59;4931139;29;20201;-72
2021/11/16 07:10:31;;;;;;;71.75;38.47;;;6.00;99.90;;;6.03;75.97;102063.00;4943788;29;20209;-74
2021/11/16 07:13:08;;;;;;;71.07;43.83;;;6.00;99.90;;;5.93;76.20;102064.84;4917778;29;20268;-74
2021/11/16 07:15:38;;;;;;;61.83;38.78;;;5.90;99.90;;;5.95;76.21;102065.56;4917474;29;20186;-74
2021/11/16 07:18:07;;;;;;;73.15;41.45;;;5.90;99.90;;;5.81;76.77;102068.63;4918658;29;20198;-74
2021/11/16 07:20:37;;;;;;;69.22;41.75;;;5.80;99.90;;;5.76;76.70;102060.16;4919787;29;20191;-74
2021/11/16 07:23:12;;;;;;;66.38;40.70;;;5.80;99.90;;;5.96;76.38;102072.63;4918440;29;20249;-74
2021/11/16 07:25:41;;;;;;;69.07;40.80;;;5.80;99.90;;;6.02;76.29;102063.13;4934951;29;20193;-76
2021/11/16 07:28:09;;;;;;;77.63;42.72;;;5.90;99.90;;;5.92;76.56;102067.69;4918308;29;20201;-74
2021/11/16 07:30:39;;;;;;;60.55;39.35;;;5.90;99.90;;;6.06;76.42;102057.31;4920300;29;20178;-75
2021/11/16 07:33:11;;;;;;;62.70;39.03;;;6.00;99.90;;;5.96;76.46;102067.25;4919062;29;20213;-74
2021/11/16 07:35:43;;;;;;;65.10;40.13;;;5.90;99.90;;;5.98;76.96;102064.44;4934136;29;20236;-74
2021/11/16 07:38:18;;;;;;;68.05;41.53;;;5.90;99.90;;;5.89;77.19;102059.91;4919533;29;20550;-75
2021/11/16 07:40:49;;;;;;;65.70;42.97;;;5.90;99.90;;;6.01;77.08;102062.28;4934892;29;20673;-75
2021/11/16 07:43:23;;;;;;;73.65;44.13;;;6.00;99.90;;;5.96;77.10;102064.56;4933961;29;20240;-73
2021/11/16 07:45:55;;;;;;;75.80;46.58;;;5.90;99.90;;;5.97;77.50;102057.34;4919421;29;20200;-74
2021/11/16 07:48:28;;;;;;;73.70;43.17;;;5.90;99.90;;;6.03;76.86;102062.16;4934039;29;20198;-74
2021/11/16 07:51:01;;;;;;;84.22;43.80;;;6.00;99.90;;;6.11;77.58;102048.84;4919026;29;20631;-73
2021/11/16 07:53:32;;;;;;;84.30;44.20;;;6.00;99.90;;;6.17;76.73;102055.47;4918952;29;20304;-74
2021/11/16 07:56:09;;;;;;;79.38;44.45;;;6.10;99.90;;;6.17;76.78;102042.88;4933713;29;20241;-74
2021/11/16 07:58:40;;;;;;;85.15;47.13;;;6.10;99.90;;;6.19;77.02;102040.91;4919260;29;20187;-74
2021/11/16 08:01:18;;;;;;;77.43;46.92;;;6.20;99.90;;;6.28;76.42;102039.19;4918886;29;20604;-75
2021/11/16 08:03:51;;;;;;;74.55;46.45;;;6.20;99.90;;;6.30;76.07;102037.16;4933096;29;20609;-74
2021/11/16 08:06:27;;;;;;;77.93;44.47;;;6.20;99.90;;;6.38;76.10;102035.47;4918866;29;20603;-74
2021/11/16 08:09:12;;;;;;;73.80;43.38;;;6.20;99.90;;;6.36;76.44;102036.59;4917766;29;20627;-74
2021/11/16 08:11:43;;;;;;;70.88;43.03;;;6.20;99.90;;;6.37;75.93;102027.53;4932896;29;20276;-75
2021/11/16 08:14:15;;;;;;;69.15;43.60;;;6.30;99.90;;;6.41;76.57;102020.88;4918280;29;20620;-73
2021/11/16 08:16:57;;;;;;;73.35;45.00;;;6.30;99.90;;;6.53;75.47;102023.19;4918431;29;20536;-75
2021/11/16 08:19:27;;;;;;;76.03;42.67;;;6.40;99.90;;;6.58;75.12;102016.56;4932770;29;20292;-74
2021/11/16 08:21:59;;;;;;;73.95;42.85;;;6.40;99.90;;;6.60;75.13;102015.41;4918335;29;20284;-73
2021/11/16 08:24:31;;;;;;;70.85;41.92;;;6.50;99.90;;;6.79;74.64;102011.75;4918132;29;20305;-75
2021/11/16 08:27:03;;;;;;;73.45;44.22;;;6.60;99.90;;;6.82;74.81;102001.56;4916949;29;20198;-75
2021/11/16 08:29:35;;;;;;;69.53;44.85;;;6.70;99.90;;;6.74;74.65;102008.66;4918322;29;20213;-74
2021/11/16 08:32:10;;;;;;;84.47;43.13;;;6.70;99.90;;;6.80;74.78;102003.53;4916939;29;20197;-74
2021/11/16 08:34:42;;;;;;;75.72;46.30;;;6.70;99.90;;;6.86;74.70;101997.56;4918129;29;20283;-74
2021/11/16 08:37:16;;;;;;;82.07;44.58;;;6.80;99.90;;;6.88;74.59;102000.09;4917683;29;20233;-74
2021/11/16 08:39:49;;;;;;;75.65;43.05;;;6.80;99.90;;;6.88;74.74;101995.56;4917808;29;20179;-74
2021/11/16 08:42:22;;;;;;;84.65;48.88;;;6.80;99.90;;;7.03;74.92;101990.50;4918071;29;20217;-75
2021/11/16 08:45:00;;;;;;;73.40;44.03;;;6.80;99.90;;;7.01;73.94;102000.59;4932571;29;20186;-76
2021/11/16 08:47:32;;;;;;;72.78;44.15;;;6.80;99.90;;;7.04;74.50;101988.66;4932248;29;20256;-74
2021/11/16 08:50:01;;;;;;;74.00;43.33;;;6.90;99.90;;;7.11;73.92;101977.13;4916477;29;20204;-75
2021/11/16 08:52:32;;;;;;;91.30;47.80;;;6.90;99.90;;;7.14;74.32;101976.81;4918194;29;20216;-76
2021/11/16 08:55:06;;;;;;;76.05;44.75;;;6.90;99.90;;;7.21;74.10;101979.75;4918200;29;20228;-75
2021/11/16 08:57:37;;;;;;;80.13;48.15;;;7.00;99.90;;;7.15;74.08;101978.53;4918024;29;20232;-75
2021/11/16 09:00:19;;;;;;;78.40;44.60;;;7.00;99.90;;;7.28;73.69;101981.66;4918023;29;20193;-74
2021/11/16 09:02:50;;;;;;;74.10;42.58;;;7.10;99.90;;;7.24;73.87;101984.81;4917660;29;20213;-74
2021/11/16 09:05:20;;;;;;;76.75;44.10;;;7.20;99.90;;;7.37;73.32;101979.88;4917076;29;20209;-73
2021/11/16 09:07:54;;;;;;;71.05;43.75;;;7.30;99.90;;;7.30;73.68;101985.06;4928056;29;20232;-74
2021/11/16 09:10:35;;;;;;;69.60;42.25;;;7.20;99.90;;;7.42;73.24;101991.03;4932694;29;20213;-76
2021/11/16 09:13:12;;;;;;;74.55;44.25;;;7.30;99.90;;;7.42;73.61;101983.81;4939351;29;20251;-75
2021/11/16 09:15:51;;;;;;;83.65;45.95;;;7.20;99.90;;;7.42;73.67;101981.13;4951799;29;20211;-75
2021/11/16 09:18:36;;;;;;;78.22;46.15;;;7.30;99.90;;;7.63;72.79;101974.56;4923933;29;20216;-75
2021/11/16 09:21:12;;;;;;;81.25;44.90;;;7.40;99.90;;;7.59;72.98;101979.41;4898691;29;20198;-74
2021/11/16 09:23:47;;;;;;;77.30;45.85;;;7.30;99.90;;;7.74;72.56;101982.38;4911341;29;20217;-74
2021/11/16 09:26:26;;;;;;;78.65;45.30;;;7.40;99.90;;;7.90;71.92;101982.47;4917546;29;20189;-75
2021/11/16 09:28:57;;;;;;;76.68;41.47;;;7.70;99.90;;;7.95;71.36;101974.75;4917745;29;20295;-75
2021/11/16 09:31:30;;;;;;;76.20;46.70;;;7.80;99.90;;;8.03;71.31;101974.00;4916010;29;20218;-75
2021/11/16 09:33:59;;;;;;;72.80;43.88;;;7.90;99.90;;;7.96;71.65;101965.69;4942303;23;20288;31
2021/11/16 09:36:32;;;;;;;75.45;45.10;;;7.90;99.90;;;7.97;71.55;101962.00;4860858;29;20226;-73
2021/11/16 09:39:09;;;;;;;74.35;44.42;;;7.80;99.90;;;8.11;71.63;101958.69;4863016;29;20701;-74
2021/11/16 09:41:42;;;;;;;77.63;46.53;;;7.80;99.90;;;7.99;72.02;101954.56;4875039;29;20637;-74
2021/11/16 09:44:15;;;;;;;74.43;42.97;;;7.80;99.90;;;7.92;71.58;101958.06;4860420;29;20704;-74
2021/11/16 09:46:52;;;;;;;76.22;44.80;;;7.70;99.90;;;8.08;71.36;101959.03;4861198;29;20656;-73
2021/11/16 09:49:37;;;;;;;72.97;43.03;;;7.80;99.90;;;8.13;70.83;101945.88;4860568;29;20230;-73
2021/11/16 09:52:08;;;;;;;81.72;45.47;;;7.90;99.90;;;8.16;70.75;101945.59;4860478;29;20582;-74
2021/11/16 09:54:54;;;;;;;62.50;40.30;;;7.90;99.90;;;8.05;71.25;101947.69;4860626;29;20629;-76
2021/11/16 09:57:26;;;;;;;67.97;42.53;;;7.90;99.90;;;8.04;71.07;101951.38;4860298;29;20191;-73
2021/11/16 10:00:06;;;;;;;70.32;41.22;;;7.80;99.90;;;8.01;72.04;101952.56;4860816;29;20186;-76
2021/11/16 10:02:39;;;;;;;80.50;45.80;;;7.80;99.90;;;8.31;70.35;101947.69;4858641;29;20246;-74
2021/11/16 10:05:19;;;;;;;74.78;44.25;;;8.00;99.90;;;8.17;70.97;101947.28;4860602;29;20555;-74
2021/11/16 10:07:52;;;;;;;61.20;40.10;;;8.00;99.90;;;8.21;70.71;101947.78;4865576;29;20562;-74
2021/11/16 10:10:26;;;;;;;66.35;42.80;;;8.00;99.90;;;8.20;70.70;101948.78;4863488;29;20188;-75
2021/11/16 10:12:58;;;;;;;80.40;42.97;;;8.00;99.90;;;8.19;70.68;101942.56;4861080;29;20210;-76
2021/11/16 10:15:31;;;;;;;73.45;41.83;;;8.00;99.90;;;8.38;70.43;101943.31;4860558;29;20251;-76
2021/11/16 10:18:00;;;;;;;57.17;38.92;;;8.20;99.90;;;8.32;70.60;101938.59;4860671;29;20303;-74
2021/11/16 10:20:33;;;;;;;67.25;40.58;;;8.10;99.90;;;8.39;70.29;101936.94;4860793;29;20218;-74
2021/11/16 10:23:18;;;;;;;68.75;39.25;;;8.20;99.90;;;8.45;70.10;101936.28;4855451;29;20215;-74
2021/11/16 10:25:58;;;;;;;70.60;43.22;;;8.30;99.90;;;8.41;70.23;101932.22;4859539;29;20206;-75
2021/11/16 10:28:30;;;;;;;67.22;40.72;;;8.20;99.90;;;8.36;70.08;101931.88;4861451;29;20568;-73
2021/11/16 10:31:01;;;;;;;64.10;39.30;;;8.10;99.90;;;8.26;70.25;101930.13;4861379;29;20194;-75
2021/11/16 10:33:34;;;;;;;72.18;40.55;;;8.10;99.90;;;8.37;70.81;101920.94;4859708;29;20596;-75
2021/11/16 10:36:07;;;;;;;69.30;42.40;;;8.20;99.90;;;8.45;70.13;101918.25;4861699;29;20215;-75
2021/11/16 10:38:38;;;;;;;68.50;42.53;;;8.20;99.90;;;8.74;69.26;101917.84;4865795;29;20191;-76
2021/11/16 10:41:12;;;;;;;70.53;42.50;;;8.40;99.90;;;8.69;69.10;101912.09;4866994;29;20191;-75